Time;durP1;ratioP1;P1;durP2;ratioP2;P2;SDS_P1;SDS_P2;PMS_P1;PMS_P2;Temp;Humidity;BMP_temperature;BMP_pressure;BME280_temperature;BME280_humidity;BME280_pressure;Samples;Min_cycle;Max_cycle;Signal;HPM_P1;HPM_P2
2022/04/21 05:06:49;;;;;;;22.75;15.90;;;;;;;;;;4896048;24;20053;-63
2022/04/21 05:09:16;;;;;;;22.70;16.30;;;;;;;;;;4860958;29;20106;-61
2022/04/21 05:11:43;;;;;;;21.98;15.60;;;;;;;;;;4860756;29;20033;-67
2022/04/21 05:14:10;;;;;;;23.30;16.02;;;;;;;;;;4844027;29;20065;-61
2022/04/21 05:16:37;;;;;;;23.83;15.18;;;;;;;;;;4860920;29;20030;-68
2022/04/21 05:19:04;;;;;;;40.63;17.40;;;;;;;;;;4860620;29;20061;-63
2022/04/21 05:21:30;;;;;;;21.88;15.52;;;;;;;;;;4860593;29;20030;-62
2022/04/21 05:23:58;;;;;;;23.45;14.35;;;;;;;;;;4860312;29;20022;-64
2022/04/21 05:26:24;;;;;;;20.25;13.73;;;;;;;;;;4860433;29;20029;-63
2022/04/21 05:28:51;;;;;;;23.60;15.50;;;;;;;;;;4860229;29;20037;-64
2022/04/21 05:31:17;;;;;;;19.98;13.80;;;;;;;;;;4860191;29;20132;-66
2022/04/21 05:33:43;;;;;;;21.27;13.80;;;;;;;;;;4860515;29;20041;-63
2022/04/21 05:36:10;;;;;;;21.77;14.75;;;;;;;;;;4860233;29;20053;-63
2022/04/21 05:38:37;;;;;;;23.02;14.48;;;;;;;;;;4854531;29;20045;-68
2022/04/21 05:41:04;;;;;;;21.42;13.18;;;;;;;;;;4844720;29;20022;-67
2022/04/21 05:43:40;;;;;;;22.35;13.23;;;;;;;;;;4841860;29;20065;-67
2022/04/21 05:46:07;;;;;;;21.08;13.82;;;;;;;;;;4841739;29;20121;-68
2022/04/21 05:48:34;;;;;;;20.25;13.82;;;;;;;;;;4841810;29;20053;-67
2022/04/21 05:51:00;;;;;;;21.73;14.38;;;;;;;;;;4841645;29;20058;-67
2022/04/21 05:53:27;;;;;;;23.55;14.30;;;;;;;;;;4841326;29;20101;-67
2022/04/21 05:55:53;;;;;;;22.13;14.82;;;;;;;;;;4841439;29;20042;-66
2022/04/21 05:58:20;;;;;;;26.60;15.45;;;;;;;;;;4841697;29;20042;-65
2022/04/21 06:00:46;;;;;;;22.67;14.65;;;;;;;;;;4841428;29;20041;-67
2022/04/21 06:03:13;;;;;;;22.92;15.57;;;;;;;;;;4841559;29;20074;-67
2022/04/21 06:05:39;;;;;;;22.17;15.05;;;;;;;;;;4841021;29;20073;-68
2022/04/21 06:08:08;;;;;;;21.70;15.43;;;;;;;;;;4841678;29;20178;-68
2022/04/21 06:10:35;;;;;;;24.30;16.52;;;;;;;;;;4843568;29;20037;-67
2022/04/21 06:13:04;;;;;;;22.95;15.75;;;;;;;;;;4845348;29;20072;-69
2022/04/21 06:15:31;;;;;;;22.27;14.90;;;;;;;;;;4848754;29;20030;-68
2022/04/21 06:17:57;;;;;;;18.67;13.57;;;;;;;;;;4849395;29;20545;-65
2022/04/21 06:20:23;;;;;;;21.77;13.88;;;;;;;;;;4849581;29;20162;-68
2022/04/21 06:22:49;;;;;;;20.90;14.45;;;;;;;;;;4848231;29;20030;-67
2022/04/21 06:25:15;;;;;;;20.10;14.35;;;;;;;;;;4849561;29;20096;-68
2022/04/21 06:27:41;;;;;;;20.98;15.27;;;;;;;;;;4849945;29;20034;-68
2022/04/21 06:30:07;;;;;;;20.45;14.85;;;;;;;;;;4847429;29;20045;-70
2022/04/21 06:32:34;;;;;;;25.30;15.82;;;;;;;;;;4856636;29;20026;-69
2022/04/21 06:35:00;;;;;;;22.92;14.30;;;;;;;;;;4855315;29;20477;-67
2022/04/21 06:37:26;;;;;;;19.85;13.73;;;;;;;;;;4840657;29;20471;-65
2022/04/21 06:39:52;;;;;;;18.27;12.73;;;;;;;;;;4853291;29;20048;-67
2022/04/21 06:42:18;;;;;;;19.70;12.95;;;;;;;;;;4849888;29;20042;-71
2022/04/21 06:50:13;;;;;;;20.10;14.50;;;;;;;;;;4848024;29;20085;-67
2022/04/21 06:52:39;;;;;;;21.50;14.02;;;;;;;;;;4830414;29;20034;-69
2022/04/21 06:55:05;;;;;;;22.75;14.73;;;;;;;;;;4852424;29;20030;-69
2022/04/21 06:57:32;;;;;;;26.13;16.15;;;;;;;;;;4855541;29;20037;-67
2022/04/21 06:59:58;;;;;;;29.77;16.70;;;;;;;;;;4848554;29;20056;-66
2022/04/21 07:02:28;;;;;;;22.92;16.20;;;;;;;;;;4839957;29;20394;-66
2022/04/21 07:04:54;;;;;;;26.08;16.58;;;;;;;;;;4840165;29;20062;-66
2022/04/21 07:07:20;;;;;;;25.33;16.30;;;;;;;;;;4840145;29;20029;-67
2022/04/21 07:09:46;;;;;;;23.38;16.77;;;;;;;;;;4840361;29;20155;-67
2022/04/21 07:12:12;;;;;;;23.33;15.95;;;;;;;;;;4840018;29;20041;-67
2022/04/21 07:14:38;;;;;;;22.95;15.07;;;;;;;;;;4839613;29;20075;-66
2022/04/21 07:17:04;;;;;;;23.92;14.75;;;;;;;;;;4840028;29;20030;-66
2022/04/21 07:19:30;;;;;;;20.58;14.30;;;;;;;;;;4839391;29;20082;-68
2022/04/21 07:21:56;;;;;;;18.75;13.73;;;;;;;;;;4839924;29;20044;-66
2022/04/21 07:24:22;;;;;;;22.40;16.55;;;;;;;;;;4839619;29;20033;-65
2022/04/21 07:26:48;;;;;;;39.70;21.23;;;;;;;;;;4838869;29;20036;-66
2022/04/21 07:29:14;;;;;;;31.48;19.58;;;;;;;;;;4839698;29;20034;-65
2022/04/21 07:31:42;;;;;;;31.08;19.40;;;;;;;;;;4839970;29;20045;-66
2022/04/21 07:34:08;;;;;;;25.92;17.83;;;;;;;;;;4839685;29;20034;-66
2022/04/21 07:36:34;;;;;;;26.20;16.80;;;;;;;;;;4839753;29;20022;-65
2022/04/21 07:39:00;;;;;;;25.23;15.32;;;;;;;;;;4839792;29;20034;-65
2022/04/21 07:41:26;;;;;;;20.85;15.70;;;;;;;;;;4839484;29;20072;-68
2022/04/21 07:43:52;;;;;;;21.92;15.00;;;;;;;;;;4839847;29;20075;-65
2022/04/21 07:46:18;;;;;;;21.67;15.02;;;;;;;;;;4840118;29;20030;-68
2022/04/21 07:51:29;;;;;;;22.85;14.77;;;;;;;;;;4839657;29;20461;-66
2022/04/21 07:53:55;;;;;;;20.58;14.05;;;;;;;;;;4823046;29;20501;-68
2022/04/21 07:56:21;;;;;;;19.80;13.27;;;;;;;;;;4839417;29;20588;-65
2022/04/21 07:58:47;;;;;;;18.40;11.55;;;;;;;;;;4839496;29;20772;-66
2022/04/21 08:01:13;;;;;;;19.88;11.25;;;;;;;;;;4839667;29;20041;-65
2022/04/21 08:03:41;;;;;;;17.10;10.43;;;;;;;;;;4839425;29;20970;-66
2022/04/21 08:06:07;;;;;;;16.75;11.23;;;;;;;;;;4839217;29;20065;-65
2022/04/21 08:08:33;;;;;;;14.85;9.15;;;;;;;;;;4839881;29;20034;-69
2022/04/21 08:10:59;;;;;;;16.33;9.35;;;;;;;;;;4839537;29;20474;-66
2022/04/21 08:13:28;;;;;;;12.75;9.02;;;;;;;;;;4839698;29;20031;-67
2022/04/21 08:15:54;;;;;;;11.60;8.40;;;;;;;;;;4839179;29;20037;-67
2022/04/21 08:18:20;;;;;;;12.10;8.02;;;;;;;;;;4839444;29;20487;-67
2022/04/21 08:20:48;;;;;;;10.70;7.72;;;;;;;;;;4839506;29;20046;-70
2022/04/21 08:23:14;;;;;;;10.98;7.65;;;;;;;;;;4839663;29;20109;-67
2022/04/21 08:33:54;;;;;;;12.80;7.85;;;;;;;;;;4839494;29;20091;-67
2022/04/21 08:36:20;;;;;;;13.00;7.93;;;;;;;;;;4839273;29;20026;-68
2022/04/21 08:38:47;;;;;;;12.70;8.00;;;;;;;;;;4839131;29;20038;-68
2022/04/21 08:41:17;;;;;;;11.10;7.95;;;;;;;;;;4839234;29;20044;-67
2022/04/21 08:43:46;;;;;;;17.45;8.63;;;;;;;;;;4841851;29;20071;-70
2022/04/21 08:46:17;;;;;;;12.73;7.63;;;;;;;;;;4841853;29;20044;-67
2022/04/21 08:48:46;;;;;;;10.73;7.13;;;;;;;;;;4842484;29;20562;-68
2022/04/21 08:51:13;;;;;;;9.95;7.25;;;;;;;;;;4842356;29;20380;-67
2022/04/21 08:53:40;;;;;;;8.90;7.32;;;;;;;;;;4842719;29;20030;-67
2022/04/21 08:56:06;;;;;;;11.88;7.45;;;;;;;;;;4842933;29;20041;-69
2022/04/21 08:58:32;;;;;;;9.73;7.32;;;;;;;;;;4842176;29;20178;-67
2022/04/21 09:00:58;;;;;;;14.15;7.93;;;;;;;;;;4842199;29;20061;-66
2022/04/21 09:03:25;;;;;;;11.55;8.18;;;;;;;;;;4842167;29;20030;-65
2022/04/21 09:05:51;;;;;;;9.63;7.80;;;;;;;;;;4841946;29;20123;-67
2022/04/21 09:08:24;;;;;;;10.77;6.93;;;;;;;;;;4842112;29;20029;-66
2022/04/21 09:11:04;;;;;;;11.25;7.55;;;;;;;;;;4842386;29;20034;-66
2022/04/21 09:13:40;;;;;;;11.07;7.70;;;;;;;;;;4825412;29;20029;-66
2022/04/21 09:16:07;;;;;;;10.57;7.55;;;;;;;;;;4842296;29;20056;-65
2022/04/21 09:18:37;;;;;;;13.75;8.52;;;;;;;;;;4844634;29;20045;-65
2022/04/21 09:21:10;;;;;;;11.88;7.47;;;;;;;;;;4849444;29;20112;-67
2022/04/21 09:23:36;;;;;;;13.30;8.13;;;;;;;;;;4851241;29;20451;-67
2022/04/21 09:26:10;;;;;;;11.98;6.85;;;;;;;;;;4849967;29;20030;-68
2022/04/21 09:28:36;;;;;;;10.88;6.32;;;;;;;;;;4848673;29;20022;-67
2022/04/21 09:31:02;;;;;;;7.10;5.70;;;;;;;;;;4849156;29;20108;-67
2022/04/21 09:33:32;;;;;;;13.48;6.78;;;;;;;;;;4848304;29;20026;-68
2022/04/21 09:35:59;;;;;;;11.20;6.45;;;;;;;;;;4848317;29;20033;-67
2022/04/21 09:38:27;;;;;;;8.50;6.38;;;;;;;;;;4851145;29;20037;-68
2022/04/21 09:40:54;;;;;;;8.48;6.07;;;;;;;;;;4850627;29;20087;-69
2022/04/21 09:43:27;;;;;;;10.43;6.80;;;;;;;;;;4849566;29;20094;-68
2022/04/21 09:46:08;;;;;;;10.55;5.57;;;;;;;;;;4850548;29;20065;-66
2022/04/21 09:48:34;;;;;;;7.70;5.88;;;;;;;;;;4850545;29;20075;-67
2022/04/21 09:51:08;;;;;;;7.57;5.82;;;;;;;;;;4851263;29;20029;-67
2022/04/21 09:53:47;;;;;;;8.00;5.80;;;;;;;;;;4851345;29;20120;-70
2022/04/21 09:56:13;;;;;;;9.63;6.72;;;;;;;;;;4850540;29;20033;-63
2022/04/21 09:58:40;;;;;;;11.27;6.10;;;;;;;;;;4843084;29;20030;-64
2022/04/21 10:01:06;;;;;;;8.98;6.28;;;;;;;;;;4840671;29;20099;-65
2022/04/21 10:03:33;;;;;;;8.05;5.75;;;;;;;;;;4858515;29;20022;-64
2022/04/21 10:06:00;;;;;;;9.07;5.78;;;;;;;;;;4858951;29;20058;-64
2022/04/21 10:08:26;;;;;;;6.80;5.32;;;;;;;;;;4858709;29;20060;-70
2022/04/21 10:10:53;;;;;;;8.23;5.47;;;;;;;;;;4853509;29;20113;-66
2022/04/21 10:13:19;;;;;;;9.38;5.60;;;;;;;;;;4845752;29;20022;-64
2022/04/21 10:15:45;;;;;;;8.90;5.55;;;;;;;;;;4849051;29;20475;-66
2022/04/21 10:18:16;;;;;;;8.07;5.80;;;;;;;;;;4849687;29;20566;-63
2022/04/21 10:20:44;;;;;;;7.80;4.97;;;;;;;;;;4848554;29;20038;-64
2022/04/21 10:23:13;;;;;;;9.55;5.10;;;;;;;;;;4848650;29;20029;-65
2022/04/21 10:25:40;;;;;;;7.32;5.15;;;;;;;;;;4848682;29;20041;-69
2022/04/21 10:28:24;;;;;;;6.97;4.40;;;;;;;;;;4848499;29;20594;-65
2022/04/21 10:30:51;;;;;;;7.38;4.13;;;;;;;;;;4848535;29;20032;-68
2022/04/21 10:33:49;;;;;;;10.68;4.40;;;;;;;;;;4847986;29;20022;-65
2022/04/21 10:48:20;;;;;;;6.65;3.83;;;;;;;;;;4849140;29;20040;-69
2022/04/21 10:59:30;;;;;;;7.93;4.88;;;;;;;;;;4847211;29;20330;-65
2022/04/21 11:02:10;;;;;;;6.65;4.45;;;;;;;;;;4849257;29;20527;-67
2022/04/21 11:04:36;;;;;;;7.18;4.07;;;;;;;;;;4847848;29;20081;-66
2022/04/21 11:07:07;;;;;;;6.50;4.45;;;;;;;;;;4852078;29;20048;-65
2022/04/21 11:09:36;;;;;;;5.35;4.07;;;;;;;;;;4851535;29;20033;-71
2022/04/21 11:12:04;;;;;;;6.07;4.18;;;;;;;;;;4846161;29;20026;-66
2022/04/21 11:14:31;;;;;;;5.43;4.15;;;;;;;;;;4848949;29;20034;-65
2022/04/21 11:16:58;;;;;;;8.68;4.50;;;;;;;;;;4847169;29;20053;-65
2022/04/21 11:19:32;;;;;;;6.05;4.45;;;;;;;;;;4847952;29;20149;-69
2022/04/21 11:22:08;;;;;;;7.22;4.80;;;;;;;;;;4847027;29;20033;-66
2022/04/21 11:25:03;;;;;;;8.73;5.22;;;;;;;;;;4848476;29;20490;-68
2022/04/21 11:27:30;;;;;;;7.10;5.20;;;;;;;;;;4763227;30;20077;-68
2022/04/21 11:29:59;;;;;;;6.50;4.60;;;;;;;;;;4763823;30;20097;-66
2022/04/21 11:32:25;;;;;;;8.65;4.55;;;;;;;;;;4764755;30;20552;-67
2022/04/21 11:35:05;;;;;;;6.03;4.50;;;;;;;;;;4764066;30;20504;-66
2022/04/21 11:37:44;;;;;;;8.57;5.03;;;;;;;;;;4764271;30;20075;-69
2022/04/21 11:40:30;;;;;;;6.50;4.70;;;;;;;;;;4765494;30;20416;-68
2022/04/21 11:42:57;;;;;;;6.20;3.17;;;;;;;;;;4763815;30;20516;-66
2022/04/21 11:45:24;;;;;;;6.35;3.90;;;;;;;;;;4764809;30;20060;-70
2022/04/21 11:47:51;;;;;;;8.68;4.07;;;;;;;;;;4764402;30;20039;-64
2022/04/21 11:50:21;;;;;;;6.47;3.67;;;;;;;;;;4763567;30;20669;-66
2022/04/21 11:52:52;;;;;;;6.93;3.30;;;;;;;;;;4763544;30;20085;-65
2022/04/21 11:55:18;;;;;;;5.35;3.20;;;;;;;;;;4762619;30;20040;-65
2022/04/21 11:57:45;;;;;;;5.68;4.60;;;;;;;;;;4764115;30;20167;-65
2022/04/21 12:00:12;;;;;;;8.57;5.68;;;;;;;;;;4764603;30;20031;-64
2022/04/21 12:08:08;;;;;;;7.60;5.25;;;;;;;;;;4841641;29;20097;-62
2022/04/21 12:10:37;;;;;;;9.27;5.60;;;;;;;;;;4845205;29;20066;-64
2022/04/21 12:13:04;;;;;;;9.27;5.53;;;;;;;;;;4845519;29;20398;-65
2022/04/21 12:15:31;;;;;;;9.05;5.75;;;;;;;;;;4844060;29;20069;-66
2022/04/21 12:18:00;;;;;;;7.47;4.95;;;;;;;;;;4841573;29;20099;-63
2022/04/21 12:20:27;;;;;;;8.60;5.15;;;;;;;;;;4843388;29;20040;-68
2022/04/21 12:22:54;;;;;;;8.60;5.15;;;;;;;;;;4843081;29;20155;-63
2022/04/21 12:25:28;;;;;;;8.35;5.72;;;;;;;;;;4843248;29;20038;-65
2022/04/21 12:27:54;;;;;;;7.88;5.55;;;;;;;;;;4843013;29;20383;-67
2022/04/21 12:30:21;;;;;;;9.88;6.10;;;;;;;;;;4843254;29;20105;-64
2022/04/21 12:32:49;;;;;;;10.38;6.57;;;;;;;;;;4842853;29;20030;-63
2022/04/21 12:35:18;;;;;;;9.50;5.80;;;;;;;;;;4843044;29;20046;-69
2022/04/21 12:38:50;;;;;;;10.55;5.22;;;;;;;;;;4842887;29;20026;-63
2022/04/21 12:40:37;;;;;;;9.93;4.03;;;;;;;;;;4842843;29;20045;-64
2022/04/21 12:43:03;;;;;;;8.40;4.38;;;;;;;;;;4842848;29;20394;-63
2022/04/21 12:45:29;;;;;;;5.72;3.95;;;;;;;;;;4842415;29;20046;-63
2022/04/21 12:47:58;;;;;;;9.98;4.13;;;;;;;;;;4842580;29;20026;-63
2022/04/21 12:56:35;;;;;;;9.48;4.80;;;;;;;;;;4963083;24;20060;-62
2022/04/21 12:59:02;;;;;;;7.25;4.22;;;;;;;;;;4839935;29;20034;-67
2022/04/21 13:01:28;;;;;;;5.80;4.13;;;;;;;;;;4842088;29;20033;-63
2022/04/21 13:03:54;;;;;;;4.43;3.25;;;;;;;;;;4842555;29;20070;-63
2022/04/21 13:06:30;;;;;;;5.30;3.33;;;;;;;;;;4842590;29;20304;-63
2022/04/21 13:08:56;;;;;;;7.35;3.40;;;;;;;;;;4841655;29;20038;-64
2022/04/21 13:11:23;;;;;;;4.43;3.10;;;;;;;;;;4841880;29;20044;-64
2022/04/21 13:13:50;;;;;;;6.85;3.50;;;;;;;;;;4842244;29;20057;-63
2022/04/21 13:16:17;;;;;;;6.15;3.78;;;;;;;;;;4842174;29;20113;-70
2022/04/21 13:18:43;;;;;;;8.13;4.10;;;;;;;;;;4841713;29;20034;-64
2022/04/21 13:23:55;;;;;;;5.88;4.10;;;;;;;;;;4841599;29;20044;-67
2022/04/21 13:26:24;;;;;;;7.25;3.78;;;;;;;;;;4841717;29;20049;-64
2022/04/21 13:28:50;;;;;;;6.32;4.07;;;;;;;;;;4841585;29;20104;-64
2022/04/21 13:34:02;;;;;;;7.57;4.05;;;;;;;;;;4841981;29;20173;-67
2022/04/21 13:36:28;;;;;;;8.85;3.72;;;;;;;;;;4841920;29;20082;-63
2022/04/21 13:38:55;;;;;;;5.50;3.63;;;;;;;;;;4841636;29;20037;-68
2022/04/21 13:41:22;;;;;;;5.25;3.40;;;;;;;;;;4841477;29;20053;-63
2022/04/21 13:43:48;;;;;;;5.55;3.35;;;;;;;;;;4841936;29;20026;-64
2022/04/21 13:46:15;;;;;;;9.00;4.07;;;;;;;;;;4841759;29;20045;-65
2022/04/21 13:48:42;;;;;;;9.30;3.72;;;;;;;;;;4842040;29;20478;-65
2022/04/21 13:51:08;;;;;;;6.45;3.55;;;;;;;;;;4841844;29;20045;-68
2022/04/21 13:53:35;;;;;;;5.45;3.47;;;;;;;;;;4841681;29;20018;-66
2022/04/21 13:56:07;;;;;;;8.57;3.85;;;;;;;;;;4845935;29;20061;-66
2022/04/21 13:58:34;;;;;;;7.93;3.53;;;;;;;;;;4859927;29;20034;-63
2022/04/21 14:01:00;;;;;;;4.88;3.38;;;;;;;;;;4860123;29;20029;-65
2022/04/21 14:03:26;;;;;;;11.32;4.10;;;;;;;;;;4860256;29;20065;-67
2022/04/21 14:05:52;;;;;;;6.55;3.50;;;;;;;;;;4859924;29;20034;-63
2022/04/21 14:08:19;;;;;;;5.10;3.22;;;;;;;;;;4860072;29;20482;-67
2022/04/21 14:10:45;;;;;;;5.82;3.83;;;;;;;;;;4859891;29;20404;-62
2022/04/21 14:13:11;;;;;;;4.88;3.30;;;;;;;;;;4859522;29;20026;-61
2022/04/21 14:15:38;;;;;;;5.43;3.08;;;;;;;;;;4859677;29;20026;-62
2022/04/21 14:18:04;;;;;;;8.38;5.22;;;;;;;;;;4859659;29;20082;-62
2022/04/21 14:20:30;;;;;;;6.40;3.30;;;;;;;;;;4859525;29;20078;-63
2022/04/21 14:22:56;;;;;;;5.97;2.88;;;;;;;;;;4859412;29;20037;-62
2022/04/21 14:25:23;;;;;;;8.90;3.10;;;;;;;;;;4859561;29;20057;-62
2022/04/21 14:27:49;;;;;;;4.60;3.30;;;;;;;;;;4859350;29;20041;-69
2022/04/21 14:30:16;;;;;;;7.13;2.85;;;;;;;;;;4851424;29;20037;-66
2022/04/21 14:32:42;;;;;;;6.78;3.33;;;;;;;;;;4840966;29;20041;-62
2022/04/21 14:35:08;;;;;;;5.55;3.60;;;;;;;;;;4824466;29;20403;-68
2022/04/21 14:45:48;;;;;;;9.38;3.40;;;;;;;;;;4859412;29;20056;-62
2022/04/21 14:48:14;;;;;;;6.18;3.30;;;;;;;;;;4858897;29;20040;-62
2022/04/21 14:50:40;;;;;;;10.32;3.42;;;;;;;;;;4845003;29;20220;-63
2022/04/21 14:53:07;;;;;;;8.55;4.45;;;;;;;;;;4840553;29;20030;-69
2022/04/21 14:55:33;;;;;;;9.48;4.97;;;;;;;;;;4839463;29;20424;-69
2022/04/21 14:57:59;;;;;;;12.18;5.63;;;;;;;;;;4824046;29;20062;-62
2022/04/21 15:00:25;;;;;;;8.52;5.35;;;;;;;;;;4831570;29;20531;-69
2022/04/21 15:02:53;;;;;;;11.70;6.22;;;;;;;;;;4823734;29;20530;-64
2022/04/21 15:05:19;;;;;;;11.35;5.28;;;;;;;;;;4823863;29;20420;-67
2022/04/21 15:07:45;;;;;;;12.45;6.32;;;;;;;;;;4822090;29;20034;-63
2022/04/21 15:10:11;;;;;;;15.82;6.38;;;;;;;;;;4821636;29;20105;-62
2022/04/21 15:12:37;;;;;;;12.77;6.18;;;;;;;;;;4822266;29;20030;-63
2022/04/21 15:15:03;;;;;;;11.00;6.88;;;;;;;;;;4822360;29;20045;-65
2022/04/21 15:17:29;;;;;;;14.23;6.55;;;;;;;;;;4821933;29;20379;-63
2022/04/21 15:19:55;;;;;;;10.27;6.03;;;;;;;;;;4821968;29;20494;-64
2022/04/21 15:22:22;;;;;;;11.07;5.85;;;;;;;;;;4821998;29;20472;-63
2022/04/21 15:24:52;;;;;;;10.65;6.13;;;;;;;;;;4821593;29;20092;-63
2022/04/21 15:27:19;;;;;;;11.38;5.47;;;;;;;;;;4822180;29;20375;-62
2022/04/21 15:29:45;;;;;;;9.05;4.45;;;;;;;;;;4821670;29;20116;-64
2022/04/21 15:32:11;;;;;;;9.73;4.80;;;;;;;;;;4821348;29;20045;-68
2022/04/21 15:34:37;;;;;;;8.80;4.90;;;;;;;;;;4822073;29;20035;-69
2022/04/21 15:37:03;;;;;;;7.82;4.55;;;;;;;;;;4822020;29;20031;-63
2022/04/21 15:39:29;;;;;;;10.43;5.07;;;;;;;;;;4822413;29;20398;-64
2022/04/21 15:41:55;;;;;;;7.53;4.90;;;;;;;;;;4825958;29;20106;-66
2022/04/21 15:44:21;;;;;;;10.13;5.40;;;;;;;;;;4822106;29;20437;-62
2022/04/21 15:46:48;;;;;;;8.90;4.40;;;;;;;;;;4830224;29;20610;-63
2022/04/21 15:49:14;;;;;;;16.42;5.40;;;;;;;;;;4822799;29;20030;-62
2022/04/21 15:51:43;;;;;;;10.55;4.80;;;;;;;;;;4837690;29;20036;-63
2022/04/21 15:59:38;;;;;;;12.18;5.22;;;;;;;;;;4861106;29;20044;-66
2022/04/21 16:02:04;;;;;;;11.90;5.70;;;;;;;;;;4859255;29;20040;-64
2022/04/21 16:04:30;;;;;;;8.77;5.13;;;;;;;;;;4852065;29;20502;-70
2022/04/21 16:06:57;;;;;;;9.50;4.97;;;;;;;;;;4850125;29;20509;-63
2022/04/21 16:09:23;;;;;;;10.05;5.30;;;;;;;;;;4842572;29;20026;-63
2022/04/21 16:11:49;;;;;;;7.68;5.10;;;;;;;;;;4843100;29;20026;-62
2022/04/21 16:14:15;;;;;;;8.65;4.90;;;;;;;;;;4843451;29;20061;-64
2022/04/21 16:16:41;;;;;;;8.23;5.35;;;;;;;;;;4843142;29;20052;-63
2022/04/21 16:19:07;;;;;;;10.02;5.28;;;;;;;;;;4843180;29;20034;-63
2022/04/21 16:21:33;;;;;;;13.77;6.00;;;;;;;;;;4843251;29;20034;-67
2022/04/21 16:24:00;;;;;;;10.10;5.60;;;;;;;;;;4842719;29;20030;-67
2022/04/21 16:26:26;;;;;;;10.50;5.22;;;;;;;;;;4842833;29;20139;-62
2022/04/21 16:28:52;;;;;;;9.35;5.60;;;;;;;;;;4843218;29;20030;-64
2022/04/21 16:31:19;;;;;;;14.15;6.53;;;;;;;;;;4842987;29;20029;-65
2022/04/21 16:33:45;;;;;;;12.60;6.25;;;;;;;;;;4842512;29;20082;-67
2022/04/21 16:36:11;;;;;;;13.15;6.43;;;;;;;;;;4843126;29;20038;-66
2022/04/21 16:38:37;;;;;;;19.85;7.32;;;;;;;;;;4842561;29;20062;-66
2022/04/21 16:41:03;;;;;;;15.50;8.60;;;;;;;;;;4843146;29;20034;-66
2022/04/21 16:43:29;;;;;;;18.73;8.52;;;;;;;;;;4843036;29;20074;-66
2022/04/21 16:45:55;;;;;;;15.75;9.88;;;;;;;;;;4842831;29;20050;-66
2022/04/21 16:48:21;;;;;;;20.33;10.07;;;;;;;;;;4842817;29;20057;-66
2022/04/21 16:50:50;;;;;;;16.25;8.85;;;;;;;;;;4843195;29;20030;-68
2022/04/21 16:53:16;;;;;;;18.08;9.20;;;;;;;;;;4842941;29;20100;-66
2022/04/21 16:55:44;;;;;;;18.60;8.02;;;;;;;;;;4840696;29;20077;-66
2022/04/21 16:58:10;;;;;;;15.23;7.80;;;;;;;;;;4824534;29;20083;-66
2022/04/21 17:03:21;;;;;;;16.65;9.23;;;;;;;;;;4823499;29;20574;-66
2022/04/21 17:05:47;;;;;;;17.70;9.40;;;;;;;;;;4823989;29;20483;-65
2022/04/21 17:08:13;;;;;;;27.17;13.65;;;;;;;;;;4824025;29;20034;-66
2022/04/21 17:10:40;;;;;;;31.00;15.07;;;;;;;;;;4823792;29;20376;-68
2022/04/21 17:13:08;;;;;;;32.22;16.27;;;;;;;;;;4823768;29;20113;-65
2022/04/21 17:15:34;;;;;;;32.63;16.50;;;;;;;;;;4823904;29;20042;-67
2022/04/21 17:18:00;;;;;;;33.97;16.13;;;;;;;;;;4823699;29;20081;-65
2022/04/21 17:20:26;;;;;;;28.13;15.15;;;;;;;;;;4823853;29;20038;-67
2022/04/21 17:22:52;;;;;;;27.88;14.15;;;;;;;;;;4823698;29;20037;-68
2022/04/21 17:25:18;;;;;;;27.60;14.43;;;;;;;;;;4823248;29;20054;-67
2022/04/21 17:27:44;;;;;;;32.03;17.65;;;;;;;;;;4823687;29;20030;-66
2022/04/21 17:30:10;;;;;;;30.60;17.10;;;;;;;;;;4823504;29;20445;-66
2022/04/21 17:32:36;;;;;;;33.65;18.60;;;;;;;;;;4823699;29;20041;-68
2022/04/21 17:35:02;;;;;;;37.55;21.00;;;;;;;;;;4823165;29;20094;-70
2022/04/21 17:37:28;;;;;;;38.45;20.38;;;;;;;;;;4823805;29;20061;-65
2022/04/21 17:39:56;;;;;;;37.40;19.48;;;;;;;;;;4823840;29;20203;-65
2022/04/21 17:42:23;;;;;;;35.70;20.25;;;;;;;;;;4826732;29;20026;-64
2022/04/21 17:44:49;;;;;;;38.78;21.45;;;;;;;;;;4828523;29;20395;-64
2022/04/21 17:47:15;;;;;;;37.92;20.60;;;;;;;;;;4835926;29;20089;-63
2022/04/21 17:49:41;;;;;;;33.88;19.33;;;;;;;;;;4834955;29;20397;-65
2022/04/21 17:52:08;;;;;;;40.17;21.88;;;;;;;;;;4855416;29;20034;-63
2022/04/21 17:54:34;;;;;;;37.40;19.77;;;;;;;;;;4845035;29;20133;-65
2022/04/21 17:57:00;;;;;;;34.90;19.08;;;;;;;;;;4827617;29;20075;-68
2022/04/21 17:59:26;;;;;;;33.70;19.45;;;;;;;;;;4860032;29;20032;-64
2022/04/21 18:01:52;;;;;;;33.65;19.70;;;;;;;;;;4860382;29;20032;-62
2022/04/21 18:04:19;;;;;;;36.15;19.60;;;;;;;;;;4859883;29;20041;-66
2022/04/21 18:06:45;;;;;;;39.63;20.70;;;;;;;;;;4873462;29;20037;-65
2022/04/21 18:09:11;;;;;;;39.22;22.38;;;;;;;;;;4867704;29;20033;-63
2022/04/21 18:11:40;;;;;;;43.70;24.10;;;;;;;;;;4866581;29;20084;-67
2022/04/21 18:14:07;;;;;;;39.88;23.45;;;;;;;;;;4851793;29;20422;-64
2022/04/21 18:16:33;;;;;;;41.67;22.67;;;;;;;;;;4846536;29;20028;-63
2022/04/21 18:18:59;;;;;;;38.65;22.70;;;;;;;;;;4870361;29;20052;-63
2022/04/21 18:21:25;;;;;;;38.60;22.42;;;;;;;;;;4829524;29;20069;-63
2022/04/21 18:23:51;;;;;;;39.40;23.55;;;;;;;;;;4845122;29;20037;-65
2022/04/21 18:26:18;;;;;;;48.25;25.08;;;;;;;;;;4860874;29;20045;-63
2022/04/21 18:28:44;;;;;;;43.20;25.55;;;;;;;;;;4849898;29;20044;-64
2022/04/21 18:31:13;;;;;;;41.30;24.50;;;;;;;;;;4867327;29;20045;-63
2022/04/21 18:33:41;;;;;;;50.65;27.65;;;;;;;;;;4854798;29;20034;-61
2022/04/21 18:36:09;;;;;;;47.47;26.23;;;;;;;;;;4874170;29;20121;-61
2022/04/21 18:38:35;;;;;;;43.97;25.42;;;;;;;;;;4847081;29;20039;-60
2022/04/21 18:41:02;;;;;;;47.67;24.95;;;;;;;;;;4847308;29;20026;-60
2022/04/21 18:43:31;;;;;;;46.40;25.27;;;;;;;;;;4856006;29;20029;-64
2022/04/21 18:45:57;;;;;;;43.75;24.02;;;;;;;;;;4854221;29;20042;-60
2022/04/21 18:48:24;;;;;;;42.15;23.45;;;;;;;;;;4857646;29;20036;-59
2022/04/21 18:50:50;;;;;;;35.22;21.27;;;;;;;;;;4848575;29;20036;-59
2022/04/21 18:53:16;;;;;;;41.20;20.10;;;;;;;;;;4855812;29;20033;-58
2022/04/21 18:55:42;;;;;;;36.05;20.45;;;;;;;;;;4854016;29;20034;-59
2022/04/21 18:58:24;;;;;;;38.72;20.08;;;;;;;;;;4834844;29;20097;-58
2022/04/21 19:00:53;;;;;;;33.72;20.35;;;;;;;;;;4848925;29;20046;-63
2022/04/21 19:03:20;;;;;;;35.92;18.30;;;;;;;;;;4837896;29;20037;-59
2022/04/21 19:05:46;;;;;;;32.50;18.42;;;;;;;;;;4850401;29;20073;-59
2022/04/21 19:08:12;;;;;;;35.00;20.15;;;;;;;;;;4842877;29;20706;-59
2022/04/21 19:10:39;;;;;;;33.25;19.25;;;;;;;;;;4849652;29;20413;-59
2022/04/21 19:13:05;;;;;;;35.45;20.63;;;;;;;;;;4833534;29;20090;-59
2022/04/21 19:15:31;;;;;;;33.78;19.92;;;;;;;;;;4840984;29;20087;-61
2022/04/21 19:17:58;;;;;;;30.48;19.13;;;;;;;;;;4838859;29;20106;-61
2022/04/21 19:20:27;;;;;;;28.73;18.10;;;;;;;;;;4854939;29;20376;-64
2022/04/21 19:22:54;;;;;;;35.63;19.55;;;;;;;;;;4845706;29;20028;-64
2022/04/21 19:25:21;;;;;;;36.13;18.58;;;;;;;;;;4837081;29;20417;-60
2022/04/21 19:27:57;;;;;;;31.38;18.67;;;;;;;;;;4836354;29;20094;-60
2022/04/21 19:30:23;;;;;;;30.48;18.35;;;;;;;;;;4829432;29;20083;-60
2022/04/21 19:32:51;;;;;;;31.45;19.13;;;;;;;;;;4828768;29;20382;-62
2022/04/21 19:35:17;;;;;;;32.38;19.52;;;;;;;;;;4831076;29;20029;-62
2022/04/21 19:37:43;;;;;;;32.42;18.60;;;;;;;;;;4834233;29;20022;-63
2022/04/21 19:40:10;;;;;;;35.13;20.85;;;;;;;;;;4829488;29;20368;-63
2022/04/21 19:42:40;;;;;;;35.00;20.15;;;;;;;;;;4831690;29;20042;-64
2022/04/21 19:45:07;;;;;;;32.65;19.70;;;;;;;;;;4829457;29;20405;-60
2022/04/21 19:47:34;;;;;;;38.83;19.90;;;;;;;;;;4831995;29;20491;-60
2022/04/21 19:50:01;;;;;;;43.97;21.90;;;;;;;;;;4830617;29;20140;-62
2022/04/21 19:52:27;;;;;;;41.03;22.85;;;;;;;;;;4839858;29;20468;-63
2022/04/21 19:54:53;;;;;;;44.90;23.85;;;;;;;;;;4839401;29;20429;-65
2022/04/21 19:57:19;;;;;;;42.85;23.00;;;;;;;;;;4850740;29;20050;-63
2022/04/21 19:59:46;;;;;;;39.38;21.73;;;;;;;;;;4839393;29;20033;-64
2022/04/21 20:02:12;;;;;;;44.30;24.38;;;;;;;;;;4843958;29;20099;-66
2022/04/21 20:04:38;;;;;;;41.65;21.48;;;;;;;;;;4847896;29;20038;-68
2022/04/21 20:09:51;;;;;;;39.17;20.10;;;;;;;;;;4849078;29;20113;-64
2022/04/21 20:12:17;;;;;;;29.67;17.45;;;;;;;;;;4847651;29;20034;-64
2022/04/21 20:14:44;;;;;;;36.92;19.30;;;;;;;;;;4847527;29;20132;-63
2022/04/21 20:17:10;;;;;;;32.38;19.27;;;;;;;;;;4848972;29;20034;-63
2022/04/21 20:22:21;;;;;;;23.67;13.07;;;;;;;;;;4847405;29;20036;-64
2022/04/21 20:27:38;;;;;;;23.88;13.27;;;;;;;;;;4847467;29;20045;-64
2022/04/21 20:30:05;;;;;;;26.35;13.63;;;;;;;;;;4847378;29;20018;-64
2022/04/21 20:32:31;;;;;;;23.88;12.70;;;;;;;;;;4849029;29;20049;-68
2022/04/21 20:34:59;;;;;;;23.92;13.35;;;;;;;;;;4847414;29;20040;-65
2022/04/21 20:37:25;;;;;;;18.25;12.13;;;;;;;;;;4848778;29;20018;-64
2022/04/21 20:39:52;;;;;;;21.77;12.70;;;;;;;;;;4850445;29;20109;-65
2022/04/21 20:42:18;;;;;;;20.10;12.18;;;;;;;;;;4850374;29;20105;-64
2022/04/21 20:44:44;;;;;;;19.70;12.43;;;;;;;;;;4855088;29;20032;-72
2022/04/21 20:47:11;;;;;;;16.50;10.30;;;;;;;;;;4861170;29;20042;-66
2022/04/21 20:49:38;;;;;;;17.42;9.95;;;;;;;;;;4851775;29;20116;-66
2022/04/21 20:52:05;;;;;;;17.15;10.38;;;;;;;;;;4851090;29;20033;-66
2022/04/21 20:54:31;;;;;;;14.40;10.00;;;;;;;;;;4851210;29;20029;-66